sensor_id;sensor_type;location;lat;lon;timestamp;P1;durP1;ratioP1;P2;durP2;ratioP2
1839;SDS011;920;48.944;9.148;2023-04-25T00:02:12;3.20;;;2.30;;
1839;SDS011;920;48.944;9.148;2023-04-25T00:04:40;3.50;;;2.13;;
1839;SDS011;920;48.944;9.148;2023-04-25T00:07:06;2.63;;;1.97;;
1839;SDS011;920;48.944;9.148;2023-04-25T00:09:33;3.30;;;2.13;;
1839;SDS011;920;48.944;9.148;2023-04-25T00:12:00;2.77;;;2.17;;
1839;SDS011;920;48.944;9.148;2023-04-25T00:14:27;3.67;;;2.03;;
1839;SDS011;920;48.944;9.148;2023-04-25T00:16:56;2.67;;;2.10;;
1839;SDS011;920;48.944;9.148;2023-04-25T00:19:24;3.37;;;2.73;;
1839;SDS011;920;48.944;9.148;2023-04-25T00:21:51;3.27;;;2.40;;
1839;SDS011;920;48.944;9.148;2023-04-25T00:24:19;3.10;;;2.50;;
1839;SDS011;920;48.944;9.148;2023-04-25T00:26:45;4.07;;;2.80;;
1839;SDS011;920;48.944;9.148;2023-04-25T00:29:12;3.47;;;2.53;;
1839;SDS011;920;48.944;9.148;2023-04-25T00:31:39;2.70;;;2.30;;
1839;SDS011;920;48.944;9.148;2023-04-25T00:34:07;2.50;;;2.30;;
1839;SDS011;920;48.944;9.148;2023-04-25T00:36:34;2.63;;;2.40;;
1839;SDS011;920;48.944;9.148;2023-04-25T00:39:01;2.73;;;2.30;;
1839;SDS011;920;48.944;9.148;2023-04-25T00:41:29;2.83;;;2.53;;
1839;SDS011;920;48.944;9.148;2023-04-25T00:43:56;3.77;;;2.40;;
1839;SDS011;920;48.944;9.148;2023-04-25T00:46:24;2.93;;;2.30;;
1839;SDS011;920;48.944;9.148;2023-04-25T00:48:50;3.00;;;2.50;;
1839;SDS011;920;48.944;9.148;2023-04-25T00:51:20;3.20;;;2.30;;
1839;SDS011;920;48.944;9.148;2023-04-25T00:53:47;2.60;;;2.40;;
1839;SDS011;920;48.944;9.148;2023-04-25T00:56:15;3.10;;;2.80;;
1839;SDS011;920;48.944;9.148;2023-04-25T00:58:42;3.83;;;2.70;;
1839;SDS011;920;48.944;9.148;2023-04-25T01:01:09;2.63;;;2.10;;
1839;SDS011;920;48.944;9.148;2023-04-25T01:03:37;2.23;;;2.03;;
1839;SDS011;920;48.944;9.148;2023-04-25T01:06:07;2.47;;;2.20;;
1839;SDS011;920;48.944;9.148;2023-04-25T01:08:36;2.97;;;2.53;;
1839;SDS011;920;48.944;9.148;2023-04-25T01:11:04;3.13;;;2.50;;
1839;SDS011;920;48.944;9.148;2023-04-25T01:13:31;2.67;;;2.37;;
1839;SDS011;920;48.944;9.148;2023-04-25T01:15:58;3.43;;;2.40;;
1839;SDS011;920;48.944;9.148;2023-04-25T01:18:25;2.97;;;2.57;;
1839;SDS011;920;48.944;9.148;2023-04-25T01:20:52;4.63;;;2.47;;
1839;SDS011;920;48.944;9.148;2023-04-25T01:23:21;3.27;;;2.50;;
1839;SDS011;920;48.944;9.148;2023-04-25T01:25:49;3.03;;;2.73;;
1839;SDS011;920;48.944;9.148;2023-04-25T01:28:16;3.60;;;2.63;;
1839;SDS011;920;48.944;9.148;2023-04-25T01:30:46;2.80;;;2.50;;
1839;SDS011;920;48.944;9.148;2023-04-25T01:33:13;2.87;;;2.57;;
1839;SDS011;920;48.944;9.148;2023-04-25T01:35:40;2.87;;;2.43;;
1839;SDS011;920;48.944;9.148;2023-04-25T01:38:07;3.00;;;2.20;;
1839;SDS011;920;48.944;9.148;2023-04-25T01:40:35;4.50;;;2.60;;
1839;SDS011;920;48.944;9.148;2023-04-25T01:43:03;4.00;;;2.30;;
1839;SDS011;920;48.944;9.148;2023-04-25T01:45:30;2.67;;;2.20;;
1839;SDS011;920;48.944;9.148;2023-04-25T01:47:58;2.30;;;2.10;;
1839;SDS011;920;48.944;9.148;2023-04-25T01:50:25;2.50;;;2.20;;
1839;SDS011;920;48.944;9.148;2023-04-25T01:52:52;3.00;;;2.40;;
1839;SDS011;920;48.944;9.148;2023-04-25T01:55:19;2.47;;;2.07;;
1839;SDS011;920;48.944;9.148;2023-04-25T01:57:58;2.60;;;2.40;;
1839;SDS011;920;48.944;9.148;2023-04-25T02:00:39;3.77;;;2.57;;
1839;SDS011;920;48.944;9.148;2023-04-25T02:03:06;3.00;;;2.27;;
1839;SDS011;920;48.944;9.148;2023-04-25T02:05:36;3.30;;;2.63;;
1839;SDS011;920;48.944;9.148;2023-04-25T02:08:06;2.80;;;2.40;;
1839;SDS011;920;48.944;9.148;2023-04-25T02:10:33;3.30;;;2.67;;
1839;SDS011;920;48.944;9.148;2023-04-25T02:13:28;3.47;;;2.67;;
1839;SDS011;920;48.944;9.148;2023-04-25T02:16:13;2.70;;;2.23;;
1839;SDS011;920;48.944;9.148;2023-04-25T02:18:40;4.63;;;2.90;;
1839;SDS011;920;48.944;9.148;2023-04-25T02:21:07;3.07;;;2.73;;
1839;SDS011;920;48.944;9.148;2023-04-25T02:23:34;3.27;;;2.83;;
1839;SDS011;920;48.944;9.148;2023-04-25T02:26:01;4.23;;;2.50;;
1839;SDS011;920;48.944;9.148;2023-04-25T02:28:30;3.33;;;2.47;;
1839;SDS011;920;48.944;9.148;2023-04-25T02:30:56;3.10;;;2.50;;
1839;SDS011;920;48.944;9.148;2023-04-25T02:33:23;3.23;;;2.70;;
1839;SDS011;920;48.944;9.148;2023-04-25T02:35:50;2.83;;;2.53;;
1839;SDS011;920;48.944;9.148;2023-04-25T02:38:20;4.73;;;2.73;;
1839;SDS011;920;48.944;9.148;2023-04-25T02:40:46;3.00;;;2.70;;
1839;SDS011;920;48.944;9.148;2023-04-25T02:43:13;3.03;;;2.60;;
1839;SDS011;920;48.944;9.148;2023-04-25T02:45:42;3.23;;;2.73;;
1839;SDS011;920;48.944;9.148;2023-04-25T02:48:10;4.03;;;2.90;;
1839;SDS011;920;48.944;9.148;2023-04-25T02:50:37;3.03;;;2.60;;
1839;SDS011;920;48.944;9.148;2023-04-25T02:53:04;3.33;;;2.70;;
1839;SDS011;920;48.944;9.148;2023-04-25T02:55:36;3.60;;;2.80;;
1839;SDS011;920;48.944;9.148;2023-04-25T02:58:04;2.60;;;2.40;;
1839;SDS011;920;48.944;9.148;2023-04-25T03:00:44;3.87;;;2.60;;
1839;SDS011;920;48.944;9.148;2023-04-25T03:03:11;3.50;;;2.70;;
1839;SDS011;920;48.944;9.148;2023-04-25T03:05:38;3.13;;;2.83;;
1839;SDS011;920;48.944;9.148;2023-04-25T03:08:05;2.90;;;2.60;;
1839;SDS011;920;48.944;9.148;2023-04-25T03:10:33;3.60;;;2.80;;
1839;SDS011;920;48.944;9.148;2023-04-25T03:13:04;3.10;;;2.53;;
1839;SDS011;920;48.944;9.148;2023-04-25T03:15:31;3.37;;;3.07;;
1839;SDS011;920;48.944;9.148;2023-04-25T03:17:59;3.20;;;2.73;;
1839;SDS011;920;48.944;9.148;2023-04-25T03:20:25;3.50;;;3.00;;
1839;SDS011;920;48.944;9.148;2023-04-25T03:22:52;3.47;;;3.17;;
1839;SDS011;920;48.944;9.148;2023-04-25T03:25:19;4.67;;;3.10;;
1839;SDS011;920;48.944;9.148;2023-04-25T03:27:46;4.17;;;3.50;;
1839;SDS011;920;48.944;9.148;2023-04-25T03:30:13;3.67;;;3.13;;
1839;SDS011;920;48.944;9.148;2023-04-25T03:32:41;4.60;;;3.50;;
1839;SDS011;920;48.944;9.148;2023-04-25T03:35:10;3.20;;;2.80;;
1839;SDS011;920;48.944;9.148;2023-04-25T03:37:36;6.30;;;3.57;;
1839;SDS011;920;48.944;9.148;2023-04-25T03:40:03;3.53;;;3.00;;
1839;SDS011;920;48.944;9.148;2023-04-25T03:42:51;4.83;;;3.43;;
1839;SDS011;920;48.944;9.148;2023-04-25T03:45:18;4.60;;;3.50;;
1839;SDS011;920;48.944;9.148;2023-04-25T03:47:44;3.50;;;2.60;;
1839;SDS011;920;48.944;9.148;2023-04-25T03:50:13;3.23;;;2.93;;
1839;SDS011;920;48.944;9.148;2023-04-25T03:52:40;4.07;;;2.77;;
1839;SDS011;920;48.944;9.148;2023-04-25T03:55:07;3.20;;;2.90;;
1839;SDS011;920;48.944;9.148;2023-04-25T03:57:35;4.37;;;3.20;;
1839;SDS011;920;48.944;9.148;2023-04-25T04:00:02;3.37;;;3.00;;
1839;SDS011;920;48.944;9.148;2023-04-25T04:02:38;3.60;;;3.30;;
1839;SDS011;920;48.944;9.148;2023-04-25T04:05:06;4.43;;;3.33;;
1839;SDS011;920;48.944;9.148;2023-04-25T04:07:38;4.77;;;3.20;;
1839;SDS011;920;48.944;9.148;2023-04-25T04:10:09;3.40;;;3.10;;
1839;SDS011;920;48.944;9.148;2023-04-25T04:12:38;4.50;;;3.23;;
1839;SDS011;920;48.944;9.148;2023-04-25T04:15:05;4.33;;;2.90;;
1839;SDS011;920;48.944;9.148;2023-04-25T04:17:33;3.93;;;2.87;;
1839;SDS011;920;48.944;9.148;2023-04-25T04:20:00;4.03;;;3.57;;
1839;SDS011;920;48.944;9.148;2023-04-25T04:22:30;4.00;;;2.90;;
1839;SDS011;920;48.944;9.148;2023-04-25T04:25:01;3.90;;;3.00;;
1839;SDS011;920;48.944;9.148;2023-04-25T04:27:49;4.33;;;3.40;;
1839;SDS011;920;48.944;9.148;2023-04-25T04:30:34;4.80;;;3.37;;
1839;SDS011;920;48.944;9.148;2023-04-25T04:33:05;4.00;;;3.50;;
1839;SDS011;920;48.944;9.148;2023-04-25T04:35:32;4.00;;;3.40;;
1839;SDS011;920;48.944;9.148;2023-04-25T04:37:59;3.43;;;2.77;;
1839;SDS011;920;48.944;9.148;2023-04-25T04:40:32;3.73;;;3.00;;
1839;SDS011;920;48.944;9.148;2023-04-25T04:43:18;3.50;;;3.10;;
1839;SDS011;920;48.944;9.148;2023-04-25T04:45:44;4.50;;;3.40;;
1839;SDS011;920;48.944;9.148;2023-04-25T04:48:11;3.40;;;3.00;;
1839;SDS011;920;48.944;9.148;2023-04-25T04:51:05;3.40;;;3.10;;
1839;SDS011;920;48.944;9.148;2023-04-25T04:54:01;6.27;;;3.47;;
1839;SDS011;920;48.944;9.148;2023-04-25T04:56:43;3.80;;;3.30;;
1839;SDS011;920;48.944;9.148;2023-04-25T04:59:22;4.00;;;3.60;;
1839;SDS011;920;48.944;9.148;2023-04-25T05:02:02;4.20;;;3.80;;
1839;SDS011;920;48.944;9.148;2023-04-25T05:04:46;5.83;;;3.70;;
1839;SDS011;920;48.944;9.148;2023-04-25T05:07:26;4.40;;;3.80;;
1839;SDS011;920;48.944;9.148;2023-04-25T05:10:19;3.90;;;3.50;;
1839;SDS011;920;48.944;9.148;2023-04-25T05:12:57;5.57;;;3.60;;
1839;SDS011;920;48.944;9.148;2023-04-25T05:15:35;4.57;;;4.00;;
1839;SDS011;920;48.944;9.148;2023-04-25T05:18:21;4.07;;;3.40;;
1839;SDS011;920;48.944;9.148;2023-04-25T05:21:01;4.10;;;3.70;;
1839;SDS011;920;48.944;9.148;2023-04-25T05:23:40;4.70;;;3.43;;
1839;SDS011;920;48.944;9.148;2023-04-25T05:26:23;4.00;;;3.20;;
1839;SDS011;920;48.944;9.148;2023-04-25T05:29:01;3.67;;;3.37;;
1839;SDS011;920;48.944;9.148;2023-04-25T05:31:53;4.20;;;3.60;;
1839;SDS011;920;48.944;9.148;2023-04-25T05:34:19;4.20;;;3.77;;
1839;SDS011;920;48.944;9.148;2023-04-25T05:36:54;5.90;;;4.13;;
1839;SDS011;920;48.944;9.148;2023-04-25T05:39:20;4.57;;;4.03;;
1839;SDS011;920;48.944;9.148;2023-04-25T05:42:20;3.80;;;3.40;;
1839;SDS011;920;48.944;9.148;2023-04-25T05:45:08;4.50;;;4.10;;
1839;SDS011;920;48.944;9.148;2023-04-25T05:48:02;5.93;;;4.47;;
1839;SDS011;920;48.944;9.148;2023-04-25T05:50:52;3.60;;;3.23;;
1839;SDS011;920;48.944;9.148;2023-04-25T05:53:46;6.20;;;4.10;;
1839;SDS011;920;48.944;9.148;2023-04-25T05:56:13;4.23;;;3.83;;
1839;SDS011;920;48.944;9.148;2023-04-25T05:58:40;4.20;;;3.80;;
1839;SDS011;920;48.944;9.148;2023-04-25T06:01:11;3.57;;;3.27;;
1839;SDS011;920;48.944;9.148;2023-04-25T06:03:38;5.20;;;4.10;;
1839;SDS011;920;48.944;9.148;2023-04-25T06:06:09;4.27;;;3.87;;
1839;SDS011;920;48.944;9.148;2023-04-25T06:08:35;3.97;;;3.57;;
1839;SDS011;920;48.944;9.148;2023-04-25T06:11:03;5.60;;;3.90;;
1839;SDS011;920;48.944;9.148;2023-04-25T06:13:30;4.27;;;3.87;;
1839;SDS011;920;48.944;9.148;2023-04-25T06:15:57;3.93;;;3.53;;
1839;SDS011;920;48.944;9.148;2023-04-25T06:18:26;4.43;;;4.03;;
1839;SDS011;920;48.944;9.148;2023-04-25T06:20:53;4.30;;;3.87;;
1839;SDS011;920;48.944;9.148;2023-04-25T06:23:19;4.93;;;4.17;;
1839;SDS011;920;48.944;9.148;2023-04-25T06:25:58;4.03;;;3.63;;
1839;SDS011;920;48.944;9.148;2023-04-25T06:28:28;4.70;;;3.50;;
1839;SDS011;920;48.944;9.148;2023-04-25T06:30:55;5.93;;;4.40;;
1839;SDS011;920;48.944;9.148;2023-04-25T06:33:22;4.07;;;3.67;;
1839;SDS011;920;48.944;9.148;2023-04-25T06:35:51;4.90;;;4.40;;
1839;SDS011;920;48.944;9.148;2023-04-25T06:38:22;4.10;;;3.70;;
1839;SDS011;920;48.944;9.148;2023-04-25T06:40:51;4.57;;;3.80;;
1839;SDS011;920;48.944;9.148;2023-04-25T06:43:18;4.13;;;3.73;;
1839;SDS011;920;48.944;9.148;2023-04-25T06:46:07;4.10;;;3.70;;
1839;SDS011;920;48.944;9.148;2023-04-25T06:48:41;4.07;;;3.50;;
1839;SDS011;920;48.944;9.148;2023-04-25T06:51:09;4.20;;;3.37;;
1839;SDS011;920;48.944;9.148;2023-04-25T06:53:38;4.10;;;3.70;;
1839;SDS011;920;48.944;9.148;2023-04-25T06:56:07;4.37;;;3.90;;
1839;SDS011;920;48.944;9.148;2023-04-25T06:58:50;5.00;;;3.43;;
1839;SDS011;920;48.944;9.148;2023-04-25T07:01:43;4.53;;;4.13;;
1839;SDS011;920;48.944;9.148;2023-04-25T07:04:23;5.20;;;4.50;;
1839;SDS011;920;48.944;9.148;2023-04-25T07:06:59;4.23;;;3.67;;
1839;SDS011;920;48.944;9.148;2023-04-25T07:09:38;4.90;;;4.40;;
1839;SDS011;920;48.944;9.148;2023-04-25T07:12:05;4.33;;;3.93;;
1839;SDS011;920;48.944;9.148;2023-04-25T07:14:33;5.60;;;4.87;;
1839;SDS011;920;48.944;9.148;2023-04-25T07:17:00;5.13;;;4.37;;
1839;SDS011;920;48.944;9.148;2023-04-25T07:19:29;4.40;;;3.70;;
1839;SDS011;920;48.944;9.148;2023-04-25T07:22:00;4.70;;;4.13;;
1839;SDS011;920;48.944;9.148;2023-04-25T07:24:27;5.00;;;4.50;;
1839;SDS011;920;48.944;9.148;2023-04-25T07:26:55;4.77;;;4.00;;
1839;SDS011;920;48.944;9.148;2023-04-25T07:29:29;5.67;;;4.20;;
1839;SDS011;920;48.944;9.148;2023-04-25T07:31:58;5.00;;;4.50;;
1839;SDS011;920;48.944;9.148;2023-04-25T07:34:25;6.00;;;4.93;;
1839;SDS011;920;48.944;9.148;2023-04-25T07:36:52;5.33;;;4.83;;
1839;SDS011;920;48.944;9.148;2023-04-25T07:39:22;4.90;;;4.37;;
1839;SDS011;920;48.944;9.148;2023-04-25T07:41:49;4.93;;;4.43;;
1839;SDS011;920;48.944;9.148;2023-04-25T07:44:22;5.10;;;4.40;;
1839;SDS011;920;48.944;9.148;2023-04-25T07:46:49;5.40;;;4.90;;
1839;SDS011;920;48.944;9.148;2023-04-25T07:49:15;4.60;;;4.20;;
1839;SDS011;920;48.944;9.148;2023-04-25T07:51:43;4.60;;;4.17;;
1839;SDS011;920;48.944;9.148;2023-04-25T07:54:14;8.27;;;4.33;;
1839;SDS011;920;48.944;9.148;2023-04-25T07:56:47;5.60;;;4.50;;
1839;SDS011;920;48.944;9.148;2023-04-25T07:59:14;4.70;;;4.30;;
1839;SDS011;920;48.944;9.148;2023-04-25T08:01:41;5.10;;;4.60;;
1839;SDS011;920;48.944;9.148;2023-04-25T08:04:10;4.93;;;4.40;;
1839;SDS011;920;48.944;9.148;2023-04-25T08:06:47;6.70;;;4.87;;
1839;SDS011;920;48.944;9.148;2023-04-25T08:09:20;6.90;;;4.83;;
1839;SDS011;920;48.944;9.148;2023-04-25T08:11:48;5.10;;;4.50;;
1839;SDS011;920;48.944;9.148;2023-04-25T08:14:19;5.87;;;5.20;;
1839;SDS011;920;48.944;9.148;2023-04-25T08:16:47;5.30;;;4.80;;
1839;SDS011;920;48.944;9.148;2023-04-25T08:19:14;5.50;;;5.00;;
1839;SDS011;920;48.944;9.148;2023-04-25T08:21:41;5.60;;;5.10;;
1839;SDS011;920;48.944;9.148;2023-04-25T08:24:13;5.10;;;4.60;;
1839;SDS011;920;48.944;9.148;2023-04-25T08:26:40;5.90;;;5.40;;
1839;SDS011;920;48.944;9.148;2023-04-25T08:29:10;5.37;;;4.70;;
1839;SDS011;920;48.944;9.148;2023-04-25T08:31:39;5.80;;;4.87;;
1839;SDS011;920;48.944;9.148;2023-04-25T08:34:07;6.00;;;5.40;;
1839;SDS011;920;48.944;9.148;2023-04-25T08:36:42;5.23;;;4.70;;
1839;SDS011;920;48.944;9.148;2023-04-25T08:39:20;5.77;;;5.17;;
1839;SDS011;920;48.944;9.148;2023-04-25T08:42:10;5.47;;;4.97;;
1839;SDS011;920;48.944;9.148;2023-04-25T08:44:39;5.63;;;5.10;;
1839;SDS011;920;48.944;9.148;2023-04-25T08:47:06;5.33;;;4.83;;
1839;SDS011;920;48.944;9.148;2023-04-25T08:49:48;5.40;;;4.90;;
1839;SDS011;920;48.944;9.148;2023-04-25T08:52:17;5.80;;;4.77;;
1839;SDS011;920;48.944;9.148;2023-04-25T08:54:48;5.67;;;5.07;;
1839;SDS011;920;48.944;9.148;2023-04-25T08:57:16;6.00;;;5.40;;
1839;SDS011;920;48.944;9.148;2023-04-25T08:59:46;5.30;;;4.80;;
1839;SDS011;920;48.944;9.148;2023-04-25T09:02:14;5.47;;;4.97;;
1839;SDS011;920;48.944;9.148;2023-04-25T09:04:45;6.93;;;5.40;;
1839;SDS011;920;48.944;9.148;2023-04-25T09:07:12;5.80;;;4.67;;
1839;SDS011;920;48.944;9.148;2023-04-25T09:09:40;5.90;;;4.63;;
1839;SDS011;920;48.944;9.148;2023-04-25T09:12:08;6.60;;;5.70;;
1839;SDS011;920;48.944;9.148;2023-04-25T09:14:35;5.57;;;5.00;;
1839;SDS011;920;48.944;9.148;2023-04-25T09:17:12;6.00;;;5.37;;
1839;SDS011;920;48.944;9.148;2023-04-25T09:19:41;6.83;;;6.13;;
1839;SDS011;920;48.944;9.148;2023-04-25T09:22:16;6.33;;;5.73;;
1839;SDS011;920;48.944;9.148;2023-04-25T09:24:46;5.93;;;5.40;;
1839;SDS011;920;48.944;9.148;2023-04-25T09:27:18;6.13;;;5.60;;
1839;SDS011;920;48.944;9.148;2023-04-25T09:29:48;6.30;;;5.70;;
1839;SDS011;920;48.944;9.148;2023-04-25T09:32:24;5.90;;;5.30;;
1839;SDS011;920;48.944;9.148;2023-04-25T09:34:55;6.07;;;5.50;;
1839;SDS011;920;48.944;9.148;2023-04-25T09:37:23;6.67;;;6.07;;
1839;SDS011;920;48.944;9.148;2023-04-25T09:40:10;7.17;;;6.47;;
1839;SDS011;920;48.944;9.148;2023-04-25T09:42:50;8.20;;;6.40;;
1839;SDS011;920;48.944;9.148;2023-04-25T09:45:17;6.30;;;5.70;;
1839;SDS011;920;48.944;9.148;2023-04-25T09:47:45;6.43;;;5.83;;
1839;SDS011;920;48.944;9.148;2023-04-25T09:50:16;6.97;;;6.20;;
1839;SDS011;920;48.944;9.148;2023-04-25T09:52:50;7.20;;;6.50;;
1839;SDS011;920;48.944;9.148;2023-04-25T09:55:30;6.20;;;5.60;;
1839;SDS011;920;48.944;9.148;2023-04-25T09:57:59;5.63;;;5.13;;
1839;SDS011;920;48.944;9.148;2023-04-25T10:00:30;6.03;;;5.43;;
1839;SDS011;920;48.944;9.148;2023-04-25T10:03:07;7.10;;;5.77;;
1839;SDS011;920;48.944;9.148;2023-04-25T10:06:04;7.00;;;6.30;;
1839;SDS011;920;48.944;9.148;2023-04-25T10:08:34;7.60;;;6.90;;
1839;SDS011;920;48.944;9.148;2023-04-25T10:11:02;7.77;;;7.00;;
1839;SDS011;920;48.944;9.148;2023-04-25T10:13:30;7.10;;;6.30;;
1839;SDS011;920;48.944;9.148;2023-04-25T10:15:57;4.93;;;4.43;;
1839;SDS011;920;48.944;9.148;2023-04-25T10:18:26;3.70;;;3.40;;
1839;SDS011;920;48.944;9.148;2023-04-25T10:20:53;4.17;;;2.87;;
1839;SDS011;920;48.944;9.148;2023-04-25T10:23:21;3.20;;;2.70;;
1839;SDS011;920;48.944;9.148;2023-04-25T10:25:48;3.90;;;3.03;;
1839;SDS011;920;48.944;9.148;2023-04-25T10:28:15;3.13;;;2.70;;
1839;SDS011;920;48.944;9.148;2023-04-25T10:30:56;3.70;;;2.70;;
1839;SDS011;920;48.944;9.148;2023-04-25T10:33:30;2.83;;;2.53;;
1839;SDS011;920;48.944;9.148;2023-04-25T10:36:07;2.90;;;2.50;;
1839;SDS011;920;48.944;9.148;2023-04-25T10:38:35;2.80;;;2.30;;
1839;SDS011;920;48.944;9.148;2023-04-25T10:41:03;3.43;;;3.13;;
1839;SDS011;920;48.944;9.148;2023-04-25T10:43:34;3.50;;;3.20;;
1839;SDS011;920;48.944;9.148;2023-04-25T10:46:02;14.43;;;11.00;;
1839;SDS011;920;48.944;9.148;2023-04-25T10:48:32;19.33;;;14.87;;
1839;SDS011;920;48.944;9.148;2023-04-25T10:51:07;26.40;;;20.07;;
1839;SDS011;920;48.944;9.148;2023-04-25T10:53:34;33.13;;;22.17;;
1839;SDS011;920;48.944;9.148;2023-04-25T10:56:08;37.60;;;27.43;;
1839;SDS011;920;48.944;9.148;2023-04-25T10:58:36;15.10;;;11.53;;
1839;SDS011;920;48.944;9.148;2023-04-25T11:01:02;8.87;;;7.40;;
1839;SDS011;920;48.944;9.148;2023-04-25T11:03:29;8.50;;;6.87;;
1839;SDS011;920;48.944;9.148;2023-04-25T11:05:58;8.17;;;5.97;;
1839;SDS011;920;48.944;9.148;2023-04-25T11:08:36;14.43;;;11.43;;
1839;SDS011;920;48.944;9.148;2023-04-25T11:11:08;6.27;;;4.60;;
1839;SDS011;920;48.944;9.148;2023-04-25T11:13:35;16.07;;;12.00;;
1839;SDS011;920;48.944;9.148;2023-04-25T11:16:01;26.80;;;19.60;;
1839;SDS011;920;48.944;9.148;2023-04-25T11:18:28;12.73;;;9.90;;
1839;SDS011;920;48.944;9.148;2023-04-25T11:20:56;5.80;;;5.07;;
1839;SDS011;920;48.944;9.148;2023-04-25T11:23:23;6.30;;;5.30;;
1839;SDS011;920;48.944;9.148;2023-04-25T11:25:50;5.63;;;5.03;;
1839;SDS011;920;48.944;9.148;2023-04-25T11:28:20;5.87;;;5.07;;
1839;SDS011;920;48.944;9.148;2023-04-25T11:30:47;9.60;;;7.97;;
1839;SDS011;920;48.944;9.148;2023-04-25T11:33:16;22.70;;;17.03;;
1839;SDS011;920;48.944;9.148;2023-04-25T11:35:43;8.43;;;6.93;;
1839;SDS011;920;48.944;9.148;2023-04-25T11:38:11;5.07;;;4.33;;
1839;SDS011;920;48.944;9.148;2023-04-25T11:40:38;5.80;;;4.50;;
1839;SDS011;920;48.944;9.148;2023-04-25T11:43:04;9.77;;;7.20;;
1839;SDS011;920;48.944;9.148;2023-04-25T11:45:32;13.77;;;10.67;;
1839;SDS011;920;48.944;9.148;2023-04-25T11:47:59;15.93;;;12.03;;
1839;SDS011;920;48.944;9.148;2023-04-25T11:50:26;10.93;;;8.90;;
1839;SDS011;920;48.944;9.148;2023-04-25T11:52:55;7.37;;;6.27;;
1839;SDS011;920;48.944;9.148;2023-04-25T11:55:24;6.77;;;5.87;;
1839;SDS011;920;48.944;9.148;2023-04-25T11:57:51;5.63;;;4.93;;
1839;SDS011;920;48.944;9.148;2023-04-25T12:00:18;5.10;;;4.60;;
1839;SDS011;920;48.944;9.148;2023-04-25T12:02:47;8.47;;;7.37;;
1839;SDS011;920;48.944;9.148;2023-04-25T12:05:16;6.60;;;5.90;;
1839;SDS011;920;48.944;9.148;2023-04-25T12:07:45;5.50;;;4.83;;
1839;SDS011;920;48.944;9.148;2023-04-25T12:10:12;7.00;;;5.30;;
1839;SDS011;920;48.944;9.148;2023-04-25T12:12:42;6.20;;;5.13;;
1839;SDS011;920;48.944;9.148;2023-04-25T12:15:10;6.70;;;5.47;;
1839;SDS011;920;48.944;9.148;2023-04-25T12:17:40;23.57;;;15.20;;
1839;SDS011;920;48.944;9.148;2023-04-25T12:20:09;22.77;;;15.67;;
1839;SDS011;920;48.944;9.148;2023-04-25T12:22:36;10.50;;;9.10;;
1839;SDS011;920;48.944;9.148;2023-04-25T12:25:03;7.67;;;6.20;;
1839;SDS011;920;48.944;9.148;2023-04-25T12:27:31;6.87;;;6.13;;
1839;SDS011;920;48.944;9.148;2023-04-25T12:30:00;5.70;;;5.10;;
1839;SDS011;920;48.944;9.148;2023-04-25T12:32:26;4.83;;;4.33;;
1839;SDS011;920;48.944;9.148;2023-04-25T12:34:53;4.93;;;4.53;;
1839;SDS011;920;48.944;9.148;2023-04-25T12:37:20;5.37;;;4.60;;
1839;SDS011;920;48.944;9.148;2023-04-25T12:39:47;6.10;;;4.80;;
1839;SDS011;920;48.944;9.148;2023-04-25T12:42:14;5.10;;;4.60;;
1839;SDS011;920;48.944;9.148;2023-04-25T12:44:41;5.87;;;5.30;;
1839;SDS011;920;48.944;9.148;2023-04-25T12:47:09;8.73;;;6.97;;
1839;SDS011;920;48.944;9.148;2023-04-25T12:49:35;6.60;;;6.00;;
1839;SDS011;920;48.944;9.148;2023-04-25T12:52:02;6.43;;;5.80;;
1839;SDS011;920;48.944;9.148;2023-04-25T12:54:29;7.50;;;6.60;;
1839;SDS011;920;48.944;9.148;2023-04-25T12:56:56;7.63;;;6.73;;
1839;SDS011;920;48.944;9.148;2023-04-25T12:59:23;7.43;;;6.70;;
1839;SDS011;920;48.944;9.148;2023-04-25T13:01:50;8.30;;;6.20;;
1839;SDS011;920;48.944;9.148;2023-04-25T13:04:18;10.47;;;7.77;;
1839;SDS011;920;48.944;9.148;2023-04-25T13:06:47;10.00;;;7.50;;
1839;SDS011;920;48.944;9.148;2023-04-25T13:09:14;8.17;;;7.10;;
1839;SDS011;920;48.944;9.148;2023-04-25T13:11:41;8.40;;;7.50;;
1839;SDS011;920;48.944;9.148;2023-04-25T13:14:07;8.50;;;7.57;;
1839;SDS011;920;48.944;9.148;2023-04-25T13:16:34;8.20;;;7.10;;
1839;SDS011;920;48.944;9.148;2023-04-25T13:19:01;8.83;;;7.43;;
1839;SDS011;920;48.944;9.148;2023-04-25T13:21:30;8.97;;;7.73;;
1839;SDS011;920;48.944;9.148;2023-04-25T13:23:58;8.43;;;7.40;;
1839;SDS011;920;48.944;9.148;2023-04-25T13:26:25;11.70;;;7.57;;
1839;SDS011;920;48.944;9.148;2023-04-25T13:28:52;10.20;;;8.50;;
1839;SDS011;920;48.944;9.148;2023-04-25T13:31:18;7.80;;;7.00;;
1839;SDS011;920;48.944;9.148;2023-04-25T13:33:46;7.63;;;6.93;;
1839;SDS011;920;48.944;9.148;2023-04-25T13:36:12;8.53;;;6.50;;
1839;SDS011;920;48.944;9.148;2023-04-25T13:38:41;7.17;;;6.40;;
1839;SDS011;920;48.944;9.148;2023-04-25T13:41:10;7.07;;;6.37;;
1839;SDS011;920;48.944;9.148;2023-04-25T13:43:41;7.27;;;6.57;;
1839;SDS011;920;48.944;9.148;2023-04-25T13:46:07;7.03;;;6.10;;
1839;SDS011;920;48.944;9.148;2023-04-25T13:48:35;8.20;;;7.40;;
1839;SDS011;920;48.944;9.148;2023-04-25T13:51:01;7.00;;;6.23;;
1839;SDS011;920;48.944;9.148;2023-04-25T13:53:28;12.50;;;6.77;;
1839;SDS011;920;48.944;9.148;2023-04-25T13:55:56;6.93;;;6.23;;
1839;SDS011;920;48.944;9.148;2023-04-25T13:58:23;7.33;;;6.63;;
1839;SDS011;920;48.944;9.148;2023-04-25T14:00:50;7.37;;;6.43;;
1839;SDS011;920;48.944;9.148;2023-04-25T14:03:17;9.03;;;7.50;;
1839;SDS011;920;48.944;9.148;2023-04-25T14:05:43;6.57;;;5.87;;
1839;SDS011;920;48.944;9.148;2023-04-25T14:08:10;6.53;;;5.53;;
1839;SDS011;920;48.944;9.148;2023-04-25T14:10:37;9.97;;;6.80;;
1839;SDS011;920;48.944;9.148;2023-04-25T14:13:05;7.00;;;6.17;;
1839;SDS011;920;48.944;9.148;2023-04-25T14:15:32;9.67;;;8.53;;
1839;SDS011;920;48.944;9.148;2023-04-25T14:18:00;8.60;;;6.33;;
1839;SDS011;920;48.944;9.148;2023-04-25T14:20:27;6.80;;;6.10;;
1839;SDS011;920;48.944;9.148;2023-04-25T14:22:54;8.80;;;6.27;;
1839;SDS011;920;48.944;9.148;2023-04-25T14:25:21;7.80;;;7.00;;
1839;SDS011;920;48.944;9.148;2023-04-25T14:27:48;8.20;;;7.40;;
1839;SDS011;920;48.944;9.148;2023-04-25T14:30:17;7.93;;;7.10;;
1839;SDS011;920;48.944;9.148;2023-04-25T14:32:44;10.97;;;8.47;;
1839;SDS011;920;48.944;9.148;2023-04-25T14:35:11;8.17;;;7.00;;
1839;SDS011;920;48.944;9.148;2023-04-25T14:37:38;6.57;;;5.97;;
1839;SDS011;920;48.944;9.148;2023-04-25T14:40:06;6.03;;;5.23;;
1839;SDS011;920;48.944;9.148;2023-04-25T14:42:35;11.10;;;6.60;;
1839;SDS011;920;48.944;9.148;2023-04-25T14:45:02;6.83;;;6.13;;
1839;SDS011;920;48.944;9.148;2023-04-25T14:47:30;10.40;;;7.20;;
1839;SDS011;920;48.944;9.148;2023-04-25T14:49:57;8.43;;;7.63;;
1839;SDS011;920;48.944;9.148;2023-04-25T14:52:24;7.83;;;7.07;;
1839;SDS011;920;48.944;9.148;2023-04-25T14:54:51;6.27;;;5.67;;
1839;SDS011;920;48.944;9.148;2023-04-25T14:57:17;6.03;;;5.43;;
1839;SDS011;920;48.944;9.148;2023-04-25T14:59:44;7.80;;;5.37;;
1839;SDS011;920;48.944;9.148;2023-04-25T15:02:11;7.40;;;6.70;;
1839;SDS011;920;48.944;9.148;2023-04-25T15:04:39;7.20;;;6.00;;
1839;SDS011;920;48.944;9.148;2023-04-25T15:07:06;6.10;;;5.50;;
1839;SDS011;920;48.944;9.148;2023-04-25T15:09:33;8.10;;;6.87;;
1839;SDS011;920;48.944;9.148;2023-04-25T15:12:00;7.07;;;5.97;;
1839;SDS011;920;48.944;9.148;2023-04-25T15:14:27;6.60;;;5.80;;
1839;SDS011;920;48.944;9.148;2023-04-25T15:16:54;7.80;;;6.43;;
1839;SDS011;920;48.944;9.148;2023-04-25T15:19:20;7.77;;;6.03;;
1839;SDS011;920;48.944;9.148;2023-04-25T15:21:48;6.27;;;5.50;;
1839;SDS011;920;48.944;9.148;2023-04-25T15:24:15;7.20;;;6.00;;
1839;SDS011;920;48.944;9.148;2023-04-25T15:26:42;6.00;;;5.30;;
1839;SDS011;920;48.944;9.148;2023-04-25T15:29:08;7.23;;;5.80;;
1839;SDS011;920;48.944;9.148;2023-04-25T15:31:35;7.03;;;6.30;;
1839;SDS011;920;48.944;9.148;2023-04-25T15:34:02;8.53;;;6.43;;
1839;SDS011;920;48.944;9.148;2023-04-25T15:36:29;7.97;;;5.70;;
1839;SDS011;920;48.944;9.148;2023-04-25T15:38:57;6.23;;;5.53;;
1839;SDS011;920;48.944;9.148;2023-04-25T15:41:24;6.37;;;5.40;;
1839;SDS011;920;48.944;9.148;2023-04-25T15:43:51;8.00;;;6.10;;
1839;SDS011;920;48.944;9.148;2023-04-25T15:46:18;6.67;;;5.60;;
1839;SDS011;920;48.944;9.148;2023-04-25T15:48:46;6.93;;;5.63;;